sensor_id;sensor_type;location;lat;lon;timestamp;P1;durP1;ratioP1;P2;durP2;ratioP2
20369;SDS011;10344;47.592;9.600;2022-07-10T00:00:32;3.70;;;2.77;;
20369;SDS011;10344;47.592;9.600;2022-07-10T00:02:59;2.97;;;2.40;;
20369;SDS011;10344;47.592;9.600;2022-07-10T00:05:25;2.45;;;2.25;;
20369;SDS011;10344;47.592;9.600;2022-07-10T00:07:51;2.88;;;2.17;;
20369;SDS011;10344;47.592;9.600;2022-07-10T00:10:22;2.63;;;2.40;;
20369;SDS011;10344;47.592;9.600;2022-07-10T00:12:49;2.90;;;2.60;;
20369;SDS011;10344;47.592;9.600;2022-07-10T00:15:16;2.75;;;2.30;;
20369;SDS011;10344;47.592;9.600;2022-07-10T00:17:43;3.15;;;2.50;;
20369;SDS011;10344;47.592;9.600;2022-07-10T00:20:09;2.70;;;2.50;;
20369;SDS011;10344;47.592;9.600;2022-07-10T00:22:37;2.35;;;2.15;;
20369;SDS011;10344;47.592;9.600;2022-07-10T00:25:03;2.42;;;2.22;;
20369;SDS011;10344;47.592;9.600;2022-07-10T00:27:30;2.22;;;2.03;;
20369;SDS011;10344;47.592;9.600;2022-07-10T00:29:56;3.10;;;2.10;;
20369;SDS011;10344;47.592;9.600;2022-07-10T00:32:22;2.30;;;2.10;;
20369;SDS011;10344;47.592;9.600;2022-07-10T00:34:49;2.17;;;1.98;;
20369;SDS011;10344;47.592;9.600;2022-07-10T00:37:14;2.22;;;2.03;;
20369;SDS011;10344;47.592;9.600;2022-07-10T00:39:40;2.90;;;2.05;;
20369;SDS011;10344;47.592;9.600;2022-07-10T00:42:06;2.23;;;2.00;;
20369;SDS011;10344;47.592;9.600;2022-07-10T00:44:35;1.73;;;1.63;;
20369;SDS011;10344;47.592;9.600;2022-07-10T00:47:05;1.85;;;1.75;;
20369;SDS011;10344;47.592;9.600;2022-07-10T00:49:32;1.70;;;1.60;;
20369;SDS011;10344;47.592;9.600;2022-07-10T00:52:00;2.28;;;1.80;;
20369;SDS011;10344;47.592;9.600;2022-07-10T00:54:27;2.13;;;1.80;;
20369;SDS011;10344;47.592;9.600;2022-07-10T00:56:54;2.63;;;2.00;;
20369;SDS011;10344;47.592;9.600;2022-07-10T00:59:20;2.77;;;2.00;;
20369;SDS011;10344;47.592;9.600;2022-07-10T01:01:47;2.47;;;1.92;;
20369;SDS011;10344;47.592;9.600;2022-07-10T01:04:14;1.90;;;1.80;;
20369;SDS011;10344;47.592;9.600;2022-07-10T01:06:40;2.08;;;1.88;;
20369;SDS011;10344;47.592;9.600;2022-07-10T01:09:06;1.80;;;1.70;;
20369;SDS011;10344;47.592;9.600;2022-07-10T01:11:33;3.00;;;1.80;;
20369;SDS011;10344;47.592;9.600;2022-07-10T01:14:00;2.72;;;1.80;;
20369;SDS011;10344;47.592;9.600;2022-07-10T01:16:26;2.95;;;1.80;;
20369;SDS011;10344;47.592;9.600;2022-07-10T01:18:52;2.13;;;1.63;;
20369;SDS011;10344;47.592;9.600;2022-07-10T01:21:33;2.00;;;1.80;;
20369;SDS011;10344;47.592;9.600;2022-07-10T01:24:02;4.00;;;2.15;;
20369;SDS011;10344;47.592;9.600;2022-07-10T01:26:31;1.83;;;1.70;;
20369;SDS011;10344;47.592;9.600;2022-07-10T01:28:57;2.10;;;1.80;;
20369;SDS011;10344;47.592;9.600;2022-07-10T01:31:26;2.13;;;1.63;;
20369;SDS011;10344;47.592;9.600;2022-07-10T01:33:55;2.53;;;2.05;;
20369;SDS011;10344;47.592;9.600;2022-07-10T01:36:21;2.00;;;1.80;;
20369;SDS011;10344;47.592;9.600;2022-07-10T01:38:47;1.60;;;1.50;;
20369;SDS011;10344;47.592;9.600;2022-07-10T01:41:16;1.88;;;1.70;;
20369;SDS011;10344;47.592;9.600;2022-07-10T01:43:41;2.73;;;1.90;;
20369;SDS011;10344;47.592;9.600;2022-07-10T01:46:09;2.20;;;1.92;;
20369;SDS011;10344;47.592;9.600;2022-07-10T01:48:38;2.53;;;2.33;;
20369;SDS011;10344;47.592;9.600;2022-07-10T01:51:05;2.45;;;2.20;;
20369;SDS011;10344;47.592;9.600;2022-07-10T01:53:31;2.33;;;2.00;;
20369;SDS011;10344;47.592;9.600;2022-07-10T01:55:58;2.30;;;2.10;;
20369;SDS011;10344;47.592;9.600;2022-07-10T01:58:25;2.20;;;2.00;;
20369;SDS011;10344;47.592;9.600;2022-07-10T02:00:51;2.97;;;2.23;;
20369;SDS011;10344;47.592;9.600;2022-07-10T02:03:16;2.40;;;1.90;;
20369;SDS011;10344;47.592;9.600;2022-07-10T02:06:00;1.90;;;1.70;;
20369;SDS011;10344;47.592;9.600;2022-07-10T02:08:26;2.47;;;2.00;;
20369;SDS011;10344;47.592;9.600;2022-07-10T02:10:52;2.73;;;2.07;;
20369;SDS011;10344;47.592;9.600;2022-07-10T02:13:19;4.10;;;2.10;;
20369;SDS011;10344;47.592;9.600;2022-07-10T02:15:45;3.30;;;2.08;;
20369;SDS011;10344;47.592;9.600;2022-07-10T02:18:12;2.10;;;1.90;;
20369;SDS011;10344;47.592;9.600;2022-07-10T02:20:38;3.50;;;2.40;;
20369;SDS011;10344;47.592;9.600;2022-07-10T02:23:04;2.05;;;1.85;;
20369;SDS011;10344;47.592;9.600;2022-07-10T02:25:33;3.45;;;2.10;;
20369;SDS011;10344;47.592;9.600;2022-07-10T02:27:59;2.40;;;1.95;;
20369;SDS011;10344;47.592;9.600;2022-07-10T02:30:27;2.30;;;1.98;;
20369;SDS011;10344;47.592;9.600;2022-07-10T02:32:52;2.47;;;2.28;;
20369;SDS011;10344;47.592;9.600;2022-07-10T02:35:18;2.50;;;2.30;;
20369;SDS011;10344;47.592;9.600;2022-07-10T02:37:44;2.15;;;2.00;;
20369;SDS011;10344;47.592;9.600;2022-07-10T02:40:09;2.50;;;2.30;;
20369;SDS011;10344;47.592;9.600;2022-07-10T02:42:35;3.85;;;2.60;;
20369;SDS011;10344;47.592;9.600;2022-07-10T02:45:01;2.60;;;2.40;;
20369;SDS011;10344;47.592;9.600;2022-07-10T02:47:27;3.15;;;2.30;;
20369;SDS011;10344;47.592;9.600;2022-07-10T02:49:55;2.87;;;2.57;;
20369;SDS011;10344;47.592;9.600;2022-07-10T02:52:21;3.20;;;2.30;;
20369;SDS011;10344;47.592;9.600;2022-07-10T02:54:46;2.55;;;2.35;;
20369;SDS011;10344;47.592;9.600;2022-07-10T02:57:12;2.50;;;2.30;;
20369;SDS011;10344;47.592;9.600;2022-07-10T02:59:38;3.20;;;2.43;;
20369;SDS011;10344;47.592;9.600;2022-07-10T03:02:03;2.53;;;2.23;;
20369;SDS011;10344;47.592;9.600;2022-07-10T03:04:29;2.13;;;1.97;;
20369;SDS011;10344;47.592;9.600;2022-07-10T03:06:55;2.97;;;2.60;;
20369;SDS011;10344;47.592;9.600;2022-07-10T03:09:21;3.47;;;2.37;;
20369;SDS011;10344;47.592;9.600;2022-07-10T03:11:46;3.13;;;2.40;;
20369;SDS011;10344;47.592;9.600;2022-07-10T03:14:14;2.65;;;2.45;;
20369;SDS011;10344;47.592;9.600;2022-07-10T03:16:40;3.07;;;2.40;;
20369;SDS011;10344;47.592;9.600;2022-07-10T03:19:05;2.42;;;2.22;;
20369;SDS011;10344;47.592;9.600;2022-07-10T03:21:31;2.35;;;2.10;;
20369;SDS011;10344;47.592;9.600;2022-07-10T03:23:56;3.83;;;2.28;;
20369;SDS011;10344;47.592;9.600;2022-07-10T03:26:22;2.97;;;2.37;;
20369;SDS011;10344;47.592;9.600;2022-07-10T03:28:48;2.53;;;2.33;;
20369;SDS011;10344;47.592;9.600;2022-07-10T03:31:13;3.60;;;2.77;;
20369;SDS011;10344;47.592;9.600;2022-07-10T03:33:39;2.57;;;2.37;;
20369;SDS011;10344;47.592;9.600;2022-07-10T03:36:05;3.10;;;2.25;;
20369;SDS011;10344;47.592;9.600;2022-07-10T03:38:35;2.63;;;2.43;;
20369;SDS011;10344;47.592;9.600;2022-07-10T03:41:01;2.53;;;2.33;;
20369;SDS011;10344;47.592;9.600;2022-07-10T03:43:26;2.80;;;2.47;;
20369;SDS011;10344;47.592;9.600;2022-07-10T03:45:52;2.83;;;2.57;;
20369;SDS011;10344;47.592;9.600;2022-07-10T03:48:18;2.90;;;2.60;;
20369;SDS011;10344;47.592;9.600;2022-07-10T03:50:43;3.10;;;2.43;;
20369;SDS011;10344;47.592;9.600;2022-07-10T03:53:09;2.78;;;2.42;;
20369;SDS011;10344;47.592;9.600;2022-07-10T03:55:34;4.93;;;2.92;;
20369;SDS011;10344;47.592;9.600;2022-07-10T03:58:00;2.83;;;2.63;;
20369;SDS011;10344;47.592;9.600;2022-07-10T04:00:30;3.05;;;2.75;;
20369;SDS011;10344;47.592;9.600;2022-07-10T04:03:03;3.13;;;2.65;;
20369;SDS011;10344;47.592;9.600;2022-07-10T04:05:30;3.42;;;2.83;;
20369;SDS011;10344;47.592;9.600;2022-07-10T04:07:57;3.65;;;2.78;;
20369;SDS011;10344;47.592;9.600;2022-07-10T04:10:24;3.00;;;2.70;;
20369;SDS011;10344;47.592;9.600;2022-07-10T04:12:53;3.10;;;2.80;;
20369;SDS011;10344;47.592;9.600;2022-07-10T04:15:19;3.13;;;2.92;;
20369;SDS011;10344;47.592;9.600;2022-07-10T04:17:45;4.15;;;3.13;;
20369;SDS011;10344;47.592;9.600;2022-07-10T04:20:14;3.05;;;2.83;;
20369;SDS011;10344;47.592;9.600;2022-07-10T04:22:43;3.28;;;2.92;;
20369;SDS011;10344;47.592;9.600;2022-07-10T04:25:09;3.47;;;2.90;;
20369;SDS011;10344;47.592;9.600;2022-07-10T04:27:37;4.47;;;3.03;;
20369;SDS011;10344;47.592;9.600;2022-07-10T04:30:03;3.33;;;3.00;;
20369;SDS011;10344;47.592;9.600;2022-07-10T04:32:30;3.22;;;2.92;;
20369;SDS011;10344;47.592;9.600;2022-07-10T04:34:56;3.47;;;3.10;;
20369;SDS011;10344;47.592;9.600;2022-07-10T04:37:25;3.50;;;3.20;;
20369;SDS011;10344;47.592;9.600;2022-07-10T04:39:51;3.20;;;2.90;;
20369;SDS011;10344;47.592;9.600;2022-07-10T04:42:17;3.40;;;2.93;;
20369;SDS011;10344;47.592;9.600;2022-07-10T04:47:14;3.70;;;3.30;;
20369;SDS011;10344;47.592;9.600;2022-07-10T04:49:40;3.43;;;3.13;;
20369;SDS011;10344;47.592;9.600;2022-07-10T04:57:00;3.20;;;2.92;;
20369;SDS011;10344;47.592;9.600;2022-07-10T05:49:06;4.10;;;3.70;;
20369;SDS011;10344;47.592;9.600;2022-07-10T05:51:34;3.75;;;3.40;;
20369;SDS011;10344;47.592;9.600;2022-07-10T05:58:50;4.00;;;3.60;;
20369;SDS011;10344;47.592;9.600;2022-07-10T06:01:16;3.70;;;3.40;;
20369;SDS011;10344;47.592;9.600;2022-07-10T06:03:41;4.00;;;3.47;;
20369;SDS011;10344;47.592;9.600;2022-07-10T06:06:07;3.80;;;3.33;;
20369;SDS011;10344;47.592;9.600;2022-07-10T06:08:33;3.73;;;3.43;;
20369;SDS011;10344;47.592;9.600;2022-07-10T06:10:58;3.60;;;3.30;;
20369;SDS011;10344;47.592;9.600;2022-07-10T06:13:24;3.70;;;3.30;;
20369;SDS011;10344;47.592;9.600;2022-07-10T06:15:50;3.75;;;3.45;;
20369;SDS011;10344;47.592;9.600;2022-07-10T06:18:16;3.67;;;3.37;;
20369;SDS011;10344;47.592;9.600;2022-07-10T06:20:41;3.55;;;3.25;;
20369;SDS011;10344;47.592;9.600;2022-07-10T06:23:09;3.75;;;3.45;;
20369;SDS011;10344;47.592;9.600;2022-07-10T06:25:34;3.72;;;3.33;;
20369;SDS011;10344;47.592;9.600;2022-07-10T06:28:00;3.38;;;3.08;;
20369;SDS011;10344;47.592;9.600;2022-07-10T06:30:28;3.90;;;3.50;;
20369;SDS011;10344;47.592;9.600;2022-07-10T06:32:54;3.45;;;3.15;;
20369;SDS011;10344;47.592;9.600;2022-07-10T06:35:19;3.63;;;3.33;;
20369;SDS011;10344;47.592;9.600;2022-07-10T06:37:45;3.40;;;3.10;;
20369;SDS011;10344;47.592;9.600;2022-07-10T06:40:14;4.30;;;3.50;;
20369;SDS011;10344;47.592;9.600;2022-07-10T06:42:40;3.67;;;3.27;;
20369;SDS011;10344;47.592;9.600;2022-07-10T06:45:06;3.57;;;3.10;;
20369;SDS011;10344;47.592;9.600;2022-07-10T06:47:32;3.40;;;3.10;;
20369;SDS011;10344;47.592;9.600;2022-07-10T06:50:32;3.65;;;3.22;;
20369;SDS011;10344;47.592;9.600;2022-07-10T06:52:59;3.65;;;3.13;;
20369;SDS011;10344;47.592;9.600;2022-07-10T06:55:27;3.85;;;3.10;;
20369;SDS011;10344;47.592;9.600;2022-07-10T06:57:53;3.63;;;3.27;;
20369;SDS011;10344;47.592;9.600;2022-07-10T07:00:19;3.63;;;3.10;;
20369;SDS011;10344;47.592;9.600;2022-07-10T07:02:45;4.00;;;3.05;;
20369;SDS011;10344;47.592;9.600;2022-07-10T07:05:11;4.25;;;2.78;;
20369;SDS011;10344;47.592;9.600;2022-07-10T07:07:38;3.08;;;2.75;;
20369;SDS011;10344;47.592;9.600;2022-07-10T07:10:04;2.65;;;2.38;;
20369;SDS011;10344;47.592;9.600;2022-07-10T07:12:31;2.70;;;2.50;;
20369;SDS011;10344;47.592;9.600;2022-07-10T07:14:56;2.83;;;2.53;;
20369;SDS011;10344;47.592;9.600;2022-07-10T07:17:24;2.95;;;2.33;;
20369;SDS011;10344;47.592;9.600;2022-07-10T07:19:58;2.65;;;2.42;;
20369;SDS011;10344;47.592;9.600;2022-07-10T07:22:46;2.90;;;2.40;;
20369;SDS011;10344;47.592;9.600;2022-07-10T07:25:30;2.73;;;2.47;;
20369;SDS011;10344;47.592;9.600;2022-07-10T07:27:56;2.93;;;2.60;;
20369;SDS011;10344;47.592;9.600;2022-07-10T07:30:21;3.13;;;2.70;;
20369;SDS011;10344;47.592;9.600;2022-07-10T07:32:47;2.10;;;1.90;;
20369;SDS011;10344;47.592;9.600;2022-07-10T07:35:14;2.40;;;2.20;;
20369;SDS011;10344;47.592;9.600;2022-07-10T07:37:43;2.30;;;2.10;;
20369;SDS011;10344;47.592;9.600;2022-07-10T07:40:16;2.40;;;2.10;;
20369;SDS011;10344;47.592;9.600;2022-07-10T07:42:47;2.55;;;2.10;;
20369;SDS011;10344;47.592;9.600;2022-07-10T07:45:18;3.58;;;2.17;;
20369;SDS011;10344;47.592;9.600;2022-07-10T07:47:47;2.25;;;2.00;;
20369;SDS011;10344;47.592;9.600;2022-07-10T07:50:17;2.90;;;2.15;;
20369;SDS011;10344;47.592;9.600;2022-07-10T07:52:44;3.35;;;2.20;;
20369;SDS011;10344;47.592;9.600;2022-07-10T07:55:10;2.28;;;1.83;;
20369;SDS011;10344;47.592;9.600;2022-07-10T07:57:37;2.22;;;2.03;;
20369;SDS011;10344;47.592;9.600;2022-07-10T08:00:03;3.30;;;2.50;;
20369;SDS011;10344;47.592;9.600;2022-07-10T08:02:33;2.20;;;2.00;;
20369;SDS011;10344;47.592;9.600;2022-07-10T08:04:59;2.78;;;2.10;;
20369;SDS011;10344;47.592;9.600;2022-07-10T08:07:37;2.30;;;2.10;;
20369;SDS011;10344;47.592;9.600;2022-07-10T08:10:04;2.53;;;2.33;;
20369;SDS011;10344;47.592;9.600;2022-07-10T08:12:32;2.60;;;2.40;;
20369;SDS011;10344;47.592;9.600;2022-07-10T08:14:58;2.60;;;2.40;;
20369;SDS011;10344;47.592;9.600;2022-07-10T08:17:24;2.47;;;2.28;;
20369;SDS011;10344;47.592;9.600;2022-07-10T08:19:50;2.63;;;2.40;;
20369;SDS011;10344;47.592;9.600;2022-07-10T08:22:16;3.10;;;2.33;;
20369;SDS011;10344;47.592;9.600;2022-07-10T08:24:41;2.90;;;2.60;;
20369;SDS011;10344;47.592;9.600;2022-07-10T08:27:07;2.50;;;2.30;;
20369;SDS011;10344;47.592;9.600;2022-07-10T08:29:34;3.00;;;2.60;;
20369;SDS011;10344;47.592;9.600;2022-07-10T08:31:59;2.60;;;2.40;;
20369;SDS011;10344;47.592;9.600;2022-07-10T08:34:25;2.60;;;2.40;;
20369;SDS011;10344;47.592;9.600;2022-07-10T08:36:52;2.70;;;2.30;;
20369;SDS011;10344;47.592;9.600;2022-07-10T08:39:18;2.47;;;2.28;;
20369;SDS011;10344;47.592;9.600;2022-07-10T08:41:46;2.90;;;2.45;;
20369;SDS011;10344;47.592;9.600;2022-07-10T08:44:15;3.50;;;2.67;;
20369;SDS011;10344;47.592;9.600;2022-07-10T08:46:44;2.92;;;2.63;;
20369;SDS011;10344;47.592;9.600;2022-07-10T08:49:10;2.60;;;2.40;;
20369;SDS011;10344;47.592;9.600;2022-07-10T08:54:29;3.30;;;2.60;;
20369;SDS011;10344;47.592;9.600;2022-07-10T08:56:56;2.50;;;2.30;;
20369;SDS011;10344;47.592;9.600;2022-07-10T08:59:25;3.80;;;2.85;;
20369;SDS011;10344;47.592;9.600;2022-07-10T09:01:52;3.00;;;2.60;;
20369;SDS011;10344;47.592;9.600;2022-07-10T09:04:19;3.45;;;2.58;;
20369;SDS011;10344;47.592;9.600;2022-07-10T09:06:46;2.77;;;2.33;;
20369;SDS011;10344;47.592;9.600;2022-07-10T09:09:12;3.90;;;2.80;;
20369;SDS011;10344;47.592;9.600;2022-07-10T09:11:38;2.43;;;2.23;;
20369;SDS011;10344;47.592;9.600;2022-07-10T09:14:08;2.30;;;2.10;;
20369;SDS011;10344;47.592;9.600;2022-07-10T09:16:37;2.58;;;2.22;;
20369;SDS011;10344;47.592;9.600;2022-07-10T09:19:16;2.65;;;2.45;;
20369;SDS011;10344;47.592;9.600;2022-07-10T09:21:45;2.63;;;2.43;;
20369;SDS011;10344;47.592;9.600;2022-07-10T09:24:12;2.80;;;2.40;;
20369;SDS011;10344;47.592;9.600;2022-07-10T09:26:39;3.22;;;2.50;;
20369;SDS011;10344;47.592;9.600;2022-07-10T09:29:12;2.60;;;2.40;;
20369;SDS011;10344;47.592;9.600;2022-07-10T09:34:14;2.20;;;2.00;;
20369;SDS011;10344;47.592;9.600;2022-07-10T09:36:40;2.50;;;2.30;;
20369;SDS011;10344;47.592;9.600;2022-07-10T09:39:05;2.47;;;2.27;;
20369;SDS011;10344;47.592;9.600;2022-07-10T09:41:31;2.42;;;2.22;;
20369;SDS011;10344;47.592;9.600;2022-07-10T09:44:01;3.58;;;2.38;;
20369;SDS011;10344;47.592;9.600;2022-07-10T09:49:13;2.40;;;2.20;;
20369;SDS011;10344;47.592;9.600;2022-07-10T09:51:40;2.47;;;2.27;;
20369;SDS011;10344;47.592;9.600;2022-07-10T09:54:07;2.50;;;2.20;;
20369;SDS011;10344;47.592;9.600;2022-07-10T09:59:18;2.30;;;2.10;;
20369;SDS011;10344;47.592;9.600;2022-07-10T10:04:11;2.60;;;2.05;;
20369;SDS011;10344;47.592;9.600;2022-07-10T10:06:42;2.30;;;2.08;;
20369;SDS011;10344;47.592;9.600;2022-07-10T10:12:06;2.15;;;1.95;;
20369;SDS011;10344;47.592;9.600;2022-07-10T10:14:37;2.50;;;2.30;;
20369;SDS011;10344;47.592;9.600;2022-07-10T10:17:04;2.65;;;2.45;;
20369;SDS011;10344;47.592;9.600;2022-07-10T10:19:32;2.40;;;2.20;;
20369;SDS011;10344;47.592;9.600;2022-07-10T10:22:18;3.63;;;2.60;;
20369;SDS011;10344;47.592;9.600;2022-07-10T10:24:45;3.05;;;2.42;;
20369;SDS011;10344;47.592;9.600;2022-07-10T10:27:11;2.78;;;2.40;;
20369;SDS011;10344;47.592;9.600;2022-07-10T10:29:38;2.65;;;2.45;;
20369;SDS011;10344;47.592;9.600;2022-07-10T10:32:06;3.30;;;2.33;;
20369;SDS011;10344;47.592;9.600;2022-07-10T10:34:42;2.90;;;2.40;;
20369;SDS011;10344;47.592;9.600;2022-07-10T10:40:09;2.22;;;2.03;;
20369;SDS011;10344;47.592;9.600;2022-07-10T10:42:36;2.30;;;2.08;;
20369;SDS011;10344;47.592;9.600;2022-07-10T10:45:23;5.70;;;2.30;;
20369;SDS011;10344;47.592;9.600;2022-07-10T10:48:04;2.40;;;2.20;;
20369;SDS011;10344;47.592;9.600;2022-07-10T10:58:43;2.47;;;2.28;;
20369;SDS011;10344;47.592;9.600;2022-07-10T11:06:42;3.03;;;2.72;;
20369;SDS011;10344;47.592;9.600;2022-07-10T11:09:24;2.60;;;2.20;;
20369;SDS011;10344;47.592;9.600;2022-07-10T11:12:03;2.30;;;2.10;;
20369;SDS011;10344;47.592;9.600;2022-07-10T11:14:33;2.88;;;2.58;;
20369;SDS011;10344;47.592;9.600;2022-07-10T11:17:01;2.30;;;2.10;;
20369;SDS011;10344;47.592;9.600;2022-07-10T11:19:28;2.40;;;2.20;;
20369;SDS011;10344;47.592;9.600;2022-07-10T11:22:07;2.63;;;2.33;;
20369;SDS011;10344;47.592;9.600;2022-07-10T11:24:45;2.20;;;2.00;;
20369;SDS011;10344;47.592;9.600;2022-07-10T11:30:02;3.47;;;2.10;;
20369;SDS011;10344;47.592;9.600;2022-07-10T11:32:28;3.20;;;2.40;;
20369;SDS011;10344;47.592;9.600;2022-07-10T11:34:54;2.97;;;2.35;;
20369;SDS011;10344;47.592;9.600;2022-07-10T11:37:20;2.90;;;2.25;;
20369;SDS011;10344;47.592;9.600;2022-07-10T11:39:47;3.40;;;2.50;;
20369;SDS011;10344;47.592;9.600;2022-07-10T11:42:15;4.22;;;2.50;;
20369;SDS011;10344;47.592;9.600;2022-07-10T11:44:43;3.30;;;2.42;;
20369;SDS011;10344;47.592;9.600;2022-07-10T11:47:11;3.65;;;2.40;;
20369;SDS011;10344;47.592;9.600;2022-07-10T11:49:43;2.30;;;2.10;;
20369;SDS011;10344;47.592;9.600;2022-07-10T11:52:10;5.30;;;2.63;;
20369;SDS011;10344;47.592;9.600;2022-07-10T11:54:36;3.42;;;2.60;;
20369;SDS011;10344;47.592;9.600;2022-07-10T11:57:05;2.65;;;2.45;;
20369;SDS011;10344;47.592;9.600;2022-07-10T11:59:32;3.63;;;2.30;;
20369;SDS011;10344;47.592;9.600;2022-07-10T12:01:58;2.33;;;2.13;;
20369;SDS011;10344;47.592;9.600;2022-07-10T12:04:28;3.70;;;2.20;;
20369;SDS011;10344;47.592;9.600;2022-07-10T12:06:55;2.60;;;2.40;;
20369;SDS011;10344;47.592;9.600;2022-07-10T12:09:23;2.30;;;2.10;;
20369;SDS011;10344;47.592;9.600;2022-07-10T12:12:06;3.00;;;2.50;;
20369;SDS011;10344;47.592;9.600;2022-07-10T12:14:33;3.40;;;2.20;;
20369;SDS011;10344;47.592;9.600;2022-07-10T12:17:00;2.00;;;1.90;;
20369;SDS011;10344;47.592;9.600;2022-07-10T12:19:29;2.40;;;2.13;;
20369;SDS011;10344;47.592;9.600;2022-07-10T12:22:01;2.72;;;2.00;;
20369;SDS011;10344;47.592;9.600;2022-07-10T12:24:29;2.63;;;2.10;;
20369;SDS011;10344;47.592;9.600;2022-07-10T12:26:54;2.22;;;2.03;;
20369;SDS011;10344;47.592;9.600;2022-07-10T12:29:29;2.37;;;2.13;;
20369;SDS011;10344;47.592;9.600;2022-07-10T12:31:56;2.47;;;2.20;;
20369;SDS011;10344;47.592;9.600;2022-07-10T12:34:32;2.13;;;1.90;;
20369;SDS011;10344;47.592;9.600;2022-07-10T12:37:05;2.10;;;1.90;;
20369;SDS011;10344;47.592;9.600;2022-07-10T12:39:35;2.20;;;2.00;;
20369;SDS011;10344;47.592;9.600;2022-07-10T12:42:04;2.47;;;2.05;;
20369;SDS011;10344;47.592;9.600;2022-07-10T12:47:05;2.75;;;2.20;;
20369;SDS011;10344;47.592;9.600;2022-07-10T12:49:56;2.10;;;1.90;;
20369;SDS011;10344;47.592;9.600;2022-07-10T12:52:24;2.33;;;2.03;;
20369;SDS011;10344;47.592;9.600;2022-07-10T12:57:53;2.20;;;2.00;;
20369;SDS011;10344;47.592;9.600;2022-07-10T13:02:47;2.17;;;2.00;;
20369;SDS011;10344;47.592;9.600;2022-07-10T13:07:50;2.15;;;1.95;;
20369;SDS011;10344;47.592;9.600;2022-07-10T13:10:18;2.25;;;1.92;;
20369;SDS011;10344;47.592;9.600;2022-07-10T13:12:44;2.30;;;2.03;;
20369;SDS011;10344;47.592;9.600;2022-07-10T13:15:10;2.17;;;2.00;;
20369;SDS011;10344;47.592;9.600;2022-07-10T13:17:45;2.10;;;1.70;;
20369;SDS011;10344;47.592;9.600;2022-07-10T13:20:11;2.20;;;1.98;;
20369;SDS011;10344;47.592;9.600;2022-07-10T13:22:39;2.92;;;1.83;;
20369;SDS011;10344;47.592;9.600;2022-07-10T13:25:05;2.03;;;1.80;;
20369;SDS011;10344;47.592;9.600;2022-07-10T13:27:31;2.10;;;1.90;;
20369;SDS011;10344;47.592;9.600;2022-07-10T13:29:57;2.10;;;1.90;;
20369;SDS011;10344;47.592;9.600;2022-07-10T13:32:23;2.17;;;1.83;;
20369;SDS011;10344;47.592;9.600;2022-07-10T13:34:50;2.05;;;1.70;;
20369;SDS011;10344;47.592;9.600;2022-07-10T13:37:15;1.77;;;1.63;;
20369;SDS011;10344;47.592;9.600;2022-07-10T13:39:41;1.97;;;1.77;;
20369;SDS011;10344;47.592;9.600;2022-07-10T13:42:07;2.33;;;1.80;;
20369;SDS011;10344;47.592;9.600;2022-07-10T13:44:33;2.72;;;1.80;;
20369;SDS011;10344;47.592;9.600;2022-07-10T13:46:58;1.90;;;1.80;;
20369;SDS011;10344;47.592;9.600;2022-07-10T13:49:24;1.88;;;1.67;;
20369;SDS011;10344;47.592;9.600;2022-07-10T13:51:54;2.05;;;1.60;;
20369;SDS011;10344;47.592;9.600;2022-07-10T13:54:20;2.17;;;1.70;;
20369;SDS011;10344;47.592;9.600;2022-07-10T13:56:45;1.97;;;1.70;;
20369;SDS011;10344;47.592;9.600;2022-07-10T13:59:11;2.50;;;1.83;;
20369;SDS011;10344;47.592;9.600;2022-07-10T14:01:37;1.70;;;1.60;;
20369;SDS011;10344;47.592;9.600;2022-07-10T14:04:02;2.53;;;1.90;;
20369;SDS011;10344;47.592;9.600;2022-07-10T14:06:28;1.92;;;1.73;;
20369;SDS011;10344;47.592;9.600;2022-07-10T14:08:54;2.70;;;1.83;;
20369;SDS011;10344;47.592;9.600;2022-07-10T14:11:20;1.77;;;1.67;;
20369;SDS011;10344;47.592;9.600;2022-07-10T14:13:45;2.50;;;1.73;;
20369;SDS011;10344;47.592;9.600;2022-07-10T14:16:11;1.85;;;1.67;;
20369;SDS011;10344;47.592;9.600;2022-07-10T14:18:37;1.73;;;1.63;;
20369;SDS011;10344;47.592;9.600;2022-07-10T14:21:06;2.30;;;1.70;;
20369;SDS011;10344;47.592;9.600;2022-07-10T14:23:38;2.38;;;1.85;;
20369;SDS011;10344;47.592;9.600;2022-07-10T14:26:09;1.88;;;1.77;;
20369;SDS011;10344;47.592;9.600;2022-07-10T14:28:35;1.90;;;1.70;;
20369;SDS011;10344;47.592;9.600;2022-07-10T14:31:01;1.50;;;1.40;;
20369;SDS011;10344;47.592;9.600;2022-07-10T14:33:32;2.05;;;1.80;;
20369;SDS011;10344;47.592;9.600;2022-07-10T14:36:01;1.90;;;1.73;;
20369;SDS011;10344;47.592;9.600;2022-07-10T14:38:27;1.90;;;1.73;;
20369;SDS011;10344;47.592;9.600;2022-07-10T14:40:53;3.42;;;1.80;;
20369;SDS011;10344;47.592;9.600;2022-07-10T14:43:20;2.13;;;1.88;;
20369;SDS011;10344;47.592;9.600;2022-07-10T14:45:46;2.10;;;2.00;;
20369;SDS011;10344;47.592;9.600;2022-07-10T14:48:12;1.90;;;1.80;;
20369;SDS011;10344;47.592;9.600;2022-07-10T14:50:38;2.15;;;1.63;;
20369;SDS011;10344;47.592;9.600;2022-07-10T14:53:04;1.80;;;1.70;;
20369;SDS011;10344;47.592;9.600;2022-07-10T14:55:31;2.05;;;1.70;;
20369;SDS011;10344;47.592;9.600;2022-07-10T14:57:56;2.25;;;1.58;;
20369;SDS011;10344;47.592;9.600;2022-07-10T15:00:22;2.10;;;1.90;;
20369;SDS011;10344;47.592;9.600;2022-07-10T15:02:48;1.67;;;1.58;;
20369;SDS011;10344;47.592;9.600;2022-07-10T15:05:13;1.80;;;1.70;;
20369;SDS011;10344;47.592;9.600;2022-07-10T15:07:39;1.70;;;1.60;;
20369;SDS011;10344;47.592;9.600;2022-07-10T15:10:05;1.88;;;1.77;;
20369;SDS011;10344;47.592;9.600;2022-07-10T15:12:33;1.60;;;1.50;;
20369;SDS011;10344;47.592;9.600;2022-07-10T15:15:01;1.80;;;1.70;;
20369;SDS011;10344;47.592;9.600;2022-07-10T15:17:28;2.23;;;1.97;;
20369;SDS011;10344;47.592;9.600;2022-07-10T15:19:53;1.75;;;1.50;;
20369;SDS011;10344;47.592;9.600;2022-07-10T15:22:19;2.10;;;1.90;;
20369;SDS011;10344;47.592;9.600;2022-07-10T15:24:45;2.10;;;1.70;;
20369;SDS011;10344;47.592;9.600;2022-07-10T15:27:14;1.95;;;1.77;;
20369;SDS011;10344;47.592;9.600;2022-07-10T15:29:39;1.73;;;1.63;;
20369;SDS011;10344;47.592;9.600;2022-07-10T15:32:06;2.00;;;1.50;;
20369;SDS011;10344;47.592;9.600;2022-07-10T15:34:31;1.83;;;1.67;;
20369;SDS011;10344;47.592;9.600;2022-07-10T15:36:57;2.30;;;1.70;;
20369;SDS011;10344;47.592;9.600;2022-07-10T15:39:23;1.88;;;1.73;;
20369;SDS011;10344;47.592;9.600;2022-07-10T15:41:49;2.58;;;1.70;;
20369;SDS011;10344;47.592;9.600;2022-07-10T15:44:15;2.90;;;1.98;;
20369;SDS011;10344;47.592;9.600;2022-07-10T15:46:41;1.70;;;1.60;;
20369;SDS011;10344;47.592;9.600;2022-07-10T15:49:08;2.47;;;1.60;;
20369;SDS011;10344;47.592;9.600;2022-07-10T15:51:36;1.85;;;1.30;;
20369;SDS011;10344;47.592;9.600;2022-07-10T15:54:03;2.15;;;1.60;;
20369;SDS011;10344;47.592;9.600;2022-07-10T15:56:29;3.37;;;1.80;;
20369;SDS011;10344;47.592;9.600;2022-07-10T15:58:54;2.22;;;1.55;;
20369;SDS011;10344;47.592;9.600;2022-07-10T16:01:20;2.90;;;1.70;;
20369;SDS011;10344;47.592;9.600;2022-07-10T16:03:46;1.75;;;1.40;;
20369;SDS011;10344;47.592;9.600;2022-07-10T16:06:13;1.52;;;1.33;;
20369;SDS011;10344;47.592;9.600;2022-07-10T16:08:39;1.40;;;1.30;;
20369;SDS011;10344;47.592;9.600;2022-07-10T16:11:05;1.67;;;1.50;;
20369;SDS011;10344;47.592;9.600;2022-07-10T16:13:31;1.80;;;1.50;;
20369;SDS011;10344;47.592;9.600;2022-07-10T16:15:57;1.83;;;1.50;;
20369;SDS011;10344;47.592;9.600;2022-07-10T16:18:23;1.97;;;1.50;;
20369;SDS011;10344;47.592;9.600;2022-07-10T16:20:49;1.75;;;1.38;;
20369;SDS011;10344;47.592;9.600;2022-07-10T16:23:15;1.60;;;1.50;;
20369;SDS011;10344;47.592;9.600;2022-07-10T16:25:40;1.63;;;1.53;;
20369;SDS011;10344;47.592;9.600;2022-07-10T16:28:25;1.75;;;1.50;;
20369;SDS011;10344;47.592;9.600;2022-07-10T16:30:54;1.40;;;1.30;;
20369;SDS011;10344;47.592;9.600;2022-07-10T16:33:20;1.63;;;1.50;;
20369;SDS011;10344;47.592;9.600;2022-07-10T16:35:46;2.05;;;1.50;;
20369;SDS011;10344;47.592;9.600;2022-07-10T16:38:12;1.95;;;1.55;;